Terminal Aerodrome Forecast
Issued by NWS Louisville, KY

Home | Current Version | Previous Version | Text Only | Print | Product List | Glossary On
Versions: 1 2 3 4 5 6 7 8 9 10 11 12 13 14 15 16 17 18
000
FTUS43 KLMK 271700
TAFSDF
TAF
KSDF 271720Z 2718/2824 03008KT P6SM SCT040
     FM280200 01007KT P6SM FEW040 FEW250
     FM281400 05009KT P6SM SCT040 SCT250=

USA.gov is the U.S. government's official web portal to all federal, state and local government web resources and services.